KLAR

Laramie Regional Airport

Laramie, Wyoming, USA
KLAR 190715Z 1907/2006 10012KT P6SM SKC FM190800 15015KT P6SM SKC FM191300 15018G28KT P6SM BKN250 FM200200 14014KT P6SM BKN100
Issued Valid From Valid To
Apr-19 @ 07:15 UTC
(2 hours ago)
Apr-19 @ 07:00 UTC
(3 hours ago)
Apr-20 @ 06:00 UTC
(in 20 hours)
Expired Click to View Apr-19 @ 07:00 to Apr-19 @ 08:00
KLAR 190715Z 1907/2006 10012KT P6SM SKC
Wind Visibility Clouds
100° at 12 knots Greater than 6 miles
  • Clear skies
From Apr-19 @ 08:00 to Apr-19 @ 13:00
FM190800 15015KT P6SM SKC
Wind Visibility Clouds
150° at 15 knots Greater than 6 miles
  • Clear skies
From Apr-19 @ 13:00 to Apr-20 @ 02:00
FM191300 15018G28KT P6SM BKN250
Wind Visibility Clouds
150° at 18 knots
 Gusting to 28 knots
Greater than 6 miles
  • Broken at 25,000' AGL
From Apr-20 @ 02:00 to Apr-20 @ 06:00
FM200200 14014KT P6SM BKN100
Wind Visibility Clouds
140° at 14 knots Greater than 6 miles
  • Broken at 10,000' AGL
KLAR 190715Z 1907/2006 10012KT P6SM SKC FM190800 15015KT P6SM SKC FM191300 15018G28KT P6SM BKN250 FM200200 14014KT P6SM BKN100
Issued Apr-19 @ 07:15 UTC
(2 hours ago)
Valid From Apr-19 @ 07:00 UTC
(3 hours ago)
Valid To Apr-20 @ 06:00 UTC
(in 20 hours)
Apr-19 @ 07:00 - Apr-19 @ 08:00
Wind Visibility
100° at 12 knots Greater than 6 miles
Clouds
  • Clear skies
From Apr-19 @ 08:00 - Apr-19 @ 13:00
Wind Visibility
150° at 15 knots Greater than 6 miles
Clouds
  • Clear skies
From Apr-19 @ 13:00 - Apr-20 @ 02:00
Wind Visibility
150° at 18 knots
 Gusting to 28 knots
Greater than 6 miles
Clouds
  • Broken at 25,000' AGL
From Apr-20 @ 02:00 - Apr-20 @ 06:00
Wind Visibility
140° at 14 knots Greater than 6 miles
Clouds
  • Broken at 10,000' AGL